Beaver, Kentucky
Current Conditions -  °F | °C
As of 3:55 PM on Thursday 27 Nov 2014 (Local Time) from KPBX Reporting Station
Overcast Overcast  
Wind Chill: 21°   Ceiling: 2400
Heat Index: 30°   Visibility: 10mi
Dew Point: 23°   Wind: 10mph
Humidity: 74%   Direction: 290°WNW
Pressure: 30.26"   Gusts: NA
Location:  37.4°N, 82.65°W
Report Text: KPBX 272055Z AUTO 29009KT 250V310 10SM BKN024 OVC029 M01/M05 A3026 RMK AO2 T10101051
Loading
Personal Weather Stations






























Interactive Weather Map New forecast layout! Learn more

10-Day Weather Forecast

Advertisements
Track Severe Weather on mobile